Glen Wilton, Virginia
Current Conditions -  °F | °C
As of 4:35 AM on Sunday 23 Nov 2014 (Local Time) from KHSP Reporting Station
Scattered Clouds Scattered Clouds  
Wind Chill: 38°   Ceiling: Unl
Heat Index: 43°   Visibility: 10mi
Dew Point: 17°   Wind: 9mph
Humidity: 36%   Direction: 230°SW
Pressure: 30.16"   Gusts: NA
Location:  37.75°N, 79.82°W
Report Text: KHSP 230935Z AUTO 23008KT 10SM SCT060 SCT095 06/M08 A3016 RMK AO2 T00611082
Loading
Personal Weather Stations






























Interactive Weather Map New forecast layout! Learn more

10-Day Weather Forecast

Advertisements
Track Severe Weather on mobile